sensor_id;sensor_type;location;lat;lon;timestamp;temperature;humidity
31759;DHT22;36334;51.366;0.020;2022-10-17T00:01:58;16.80;99.90
31759;DHT22;36334;51.366;0.020;2022-10-17T00:04:44;16.90;99.90
31759;DHT22;36334;51.366;0.020;2022-10-17T00:07:30;16.90;99.90
31759;DHT22;36334;51.366;0.020;2022-10-17T00:10:16;16.90;99.90
31759;DHT22;36334;51.366;0.020;2022-10-17T00:13:02;16.90;99.90
31759;DHT22;36334;51.366;0.020;2022-10-17T00:15:49;16.90;99.90
31759;DHT22;36334;51.366;0.020;2022-10-17T00:18:35;17.00;99.90
31759;DHT22;36334;51.366;0.020;2022-10-17T00:21:21;16.90;99.90
31759;DHT22;36334;51.366;0.020;2022-10-17T00:24:08;16.90;99.90
31759;DHT22;36334;51.366;0.020;2022-10-17T00:26:54;16.90;99.90
31759;DHT22;36334;51.366;0.020;2022-10-17T00:29:40;16.90;99.90
31759;DHT22;36334;51.366;0.020;2022-10-17T00:32:39;16.90;99.90
31759;DHT22;36334;51.366;0.020;2022-10-17T00:35:32;16.90;99.90
31759;DHT22;36334;51.366;0.020;2022-10-17T00:38:18;16.90;99.90
31759;DHT22;36334;51.366;0.020;2022-10-17T00:41:06;16.80;99.90
31759;DHT22;36334;51.366;0.020;2022-10-17T00:44:02;16.80;99.90
31759;DHT22;36334;51.366;0.020;2022-10-17T00:46:51;16.80;99.90
31759;DHT22;36334;51.366;0.020;2022-10-17T00:49:37;16.80;99.90
31759;DHT22;36334;51.366;0.020;2022-10-17T00:52:26;16.70;99.90
31759;DHT22;36334;51.366;0.020;2022-10-17T00:55:24;16.70;99.90
31759;DHT22;36334;51.366;0.020;2022-10-17T00:58:13;16.70;99.90
31759;DHT22;36334;51.366;0.020;2022-10-17T01:01:00;16.70;99.90
31759;DHT22;36334;51.366;0.020;2022-10-17T01:03:47;16.60;99.90
31759;DHT22;36334;51.366;0.020;2022-10-17T01:06:33;16.60;99.90
31759;DHT22;36334;51.366;0.020;2022-10-17T01:09:21;16.60;99.90
31759;DHT22;36334;51.366;0.020;2022-10-17T01:15:42;16.60;99.90
31759;DHT22;36334;51.366;0.020;2022-10-17T01:24:47;16.50;99.90
31759;DHT22;36334;51.366;0.020;2022-10-17T01:31:01;16.50;99.90
31759;DHT22;36334;51.366;0.020;2022-10-17T01:36:56;16.40;99.90
31759;DHT22;36334;51.366;0.020;2022-10-17T01:43:23;16.30;99.90
31759;DHT22;36334;51.366;0.020;2022-10-17T01:46:33;16.30;99.90
31759;DHT22;36334;51.366;0.020;2022-10-17T01:49:24;16.30;99.90
31759;DHT22;36334;51.366;0.020;2022-10-17T01:52:19;16.30;99.90
31759;DHT22;36334;51.366;0.020;2022-10-17T01:55:11;16.20;99.90
31759;DHT22;36334;51.366;0.020;2022-10-17T01:58:11;16.20;99.90
31759;DHT22;36334;51.366;0.020;2022-10-17T02:01:02;16.20;99.90
31759;DHT22;36334;51.366;0.020;2022-10-17T02:03:50;16.20;99.90
31759;DHT22;36334;51.366;0.020;2022-10-17T02:06:37;16.30;99.90
31759;DHT22;36334;51.366;0.020;2022-10-17T02:09:29;16.20;99.90
31759;DHT22;36334;51.366;0.020;2022-10-17T02:12:36;16.20;99.90
31759;DHT22;36334;51.366;0.020;2022-10-17T02:15:39;16.20;99.90
31759;DHT22;36334;51.366;0.020;2022-10-17T02:18:42;16.20;99.90
31759;DHT22;36334;51.366;0.020;2022-10-17T02:21:37;16.20;99.90
31759;DHT22;36334;51.366;0.020;2022-10-17T02:27:50;16.20;99.90
31759;DHT22;36334;51.366;0.020;2022-10-17T02:31:09;16.20;99.90
31759;DHT22;36334;51.366;0.020;2022-10-17T02:34:05;16.20;99.90
31759;DHT22;36334;51.366;0.020;2022-10-17T02:36:57;16.20;99.90
31759;DHT22;36334;51.366;0.020;2022-10-17T02:39:46;16.20;99.90
31759;DHT22;36334;51.366;0.020;2022-10-17T02:42:34;16.20;99.90
31759;DHT22;36334;51.366;0.020;2022-10-17T02:45:24;16.20;99.90
31759;DHT22;36334;51.366;0.020;2022-10-17T02:48:46;16.20;99.90
31759;DHT22;36334;51.366;0.020;2022-10-17T02:52:14;16.20;99.90
31759;DHT22;36334;51.366;0.020;2022-10-17T02:55:02;16.20;99.90
31759;DHT22;36334;51.366;0.020;2022-10-17T02:57:53;16.20;99.90
31759;DHT22;36334;51.366;0.020;2022-10-17T03:00:41;16.20;99.90
31759;DHT22;36334;51.366;0.020;2022-10-17T03:03:31;16.30;99.90
31759;DHT22;36334;51.366;0.020;2022-10-17T03:06:20;16.30;99.90
31759;DHT22;36334;51.366;0.020;2022-10-17T03:09:09;16.30;99.90
31759;DHT22;36334;51.366;0.020;2022-10-17T03:11:55;16.30;99.90
31759;DHT22;36334;51.366;0.020;2022-10-17T03:14:42;16.30;99.90
31759;DHT22;36334;51.366;0.020;2022-10-17T03:17:28;16.30;99.90
31759;DHT22;36334;51.366;0.020;2022-10-17T03:20:17;16.20;99.90
31759;DHT22;36334;51.366;0.020;2022-10-17T03:23:03;16.20;99.90
31759;DHT22;36334;51.366;0.020;2022-10-17T03:25:50;16.20;99.90
31759;DHT22;36334;51.366;0.020;2022-10-17T03:28:36;16.20;99.90
31759;DHT22;36334;51.366;0.020;2022-10-17T03:31:23;16.20;99.90
31759;DHT22;36334;51.366;0.020;2022-10-17T03:34:10;16.10;99.90
31759;DHT22;36334;51.366;0.020;2022-10-17T03:36:56;16.10;99.90
31759;DHT22;36334;51.366;0.020;2022-10-17T03:39:45;16.10;99.90
31759;DHT22;36334;51.366;0.020;2022-10-17T03:42:31;16.00;99.90
31759;DHT22;36334;51.366;0.020;2022-10-17T03:45:17;16.00;99.90
31759;DHT22;36334;51.366;0.020;2022-10-17T03:48:04;16.00;99.90
31759;DHT22;36334;51.366;0.020;2022-10-17T03:50:51;15.90;99.90
31759;DHT22;36334;51.366;0.020;2022-10-17T03:53:37;15.90;99.90
31759;DHT22;36334;51.366;0.020;2022-10-17T03:56:24;15.90;99.90
31759;DHT22;36334;51.366;0.020;2022-10-17T03:59:16;15.90;99.90
31759;DHT22;36334;51.366;0.020;2022-10-17T04:02:11;15.90;99.90
31759;DHT22;36334;51.366;0.020;2022-10-17T04:04:57;15.90;99.90
31759;DHT22;36334;51.366;0.020;2022-10-17T04:07:43;16.00;99.90
31759;DHT22;36334;51.366;0.020;2022-10-17T04:10:30;16.00;99.90
31759;DHT22;36334;51.366;0.020;2022-10-17T04:13:16;16.00;99.90
31759;DHT22;36334;51.366;0.020;2022-10-17T04:16:06;16.00;99.90
31759;DHT22;36334;51.366;0.020;2022-10-17T04:18:58;16.00;99.90
31759;DHT22;36334;51.366;0.020;2022-10-17T04:21:49;16.00;99.90
31759;DHT22;36334;51.366;0.020;2022-10-17T04:24:35;16.00;99.90
31759;DHT22;36334;51.366;0.020;2022-10-17T04:27:30;16.00;99.90
31759;DHT22;36334;51.366;0.020;2022-10-17T04:30:16;16.00;99.90
31759;DHT22;36334;51.366;0.020;2022-10-17T04:33:04;16.00;99.90
31759;DHT22;36334;51.366;0.020;2022-10-17T04:35:55;16.00;99.90
31759;DHT22;36334;51.366;0.020;2022-10-17T04:38:42;16.00;99.90
31759;DHT22;36334;51.366;0.020;2022-10-17T04:41:28;16.00;99.90
31759;DHT22;36334;51.366;0.020;2022-10-17T04:44:15;16.00;99.90
31759;DHT22;36334;51.366;0.020;2022-10-17T04:47:09;16.00;99.90
31759;DHT22;36334;51.366;0.020;2022-10-17T04:49:57;16.10;99.90
31759;DHT22;36334;51.366;0.020;2022-10-17T04:52:45;16.10;99.90
31759;DHT22;36334;51.366;0.020;2022-10-17T04:55:31;16.10;99.90
31759;DHT22;36334;51.366;0.020;2022-10-17T04:58:21;16.10;99.90
31759;DHT22;36334;51.366;0.020;2022-10-17T05:01:18;16.10;99.90
31759;DHT22;36334;51.366;0.020;2022-10-17T05:04:09;16.10;99.90
31759;DHT22;36334;51.366;0.020;2022-10-17T05:06:56;16.10;99.90
31759;DHT22;36334;51.366;0.020;2022-10-17T05:09:59;16.10;99.90
31759;DHT22;36334;51.366;0.020;2022-10-17T05:12:48;16.00;99.90
31759;DHT22;36334;51.366;0.020;2022-10-17T05:15:36;16.00;99.90
31759;DHT22;36334;51.366;0.020;2022-10-17T05:18:26;16.00;99.90
31759;DHT22;36334;51.366;0.020;2022-10-17T05:21:15;16.00;99.90
31759;DHT22;36334;51.366;0.020;2022-10-17T05:24:05;16.10;99.90
31759;DHT22;36334;51.366;0.020;2022-10-17T05:26:52;16.00;99.90
31759;DHT22;36334;51.366;0.020;2022-10-17T05:29:38;16.00;99.90
31759;DHT22;36334;51.366;0.020;2022-10-17T05:32:35;16.00;99.90
31759;DHT22;36334;51.366;0.020;2022-10-17T05:35:28;16.00;99.90
31759;DHT22;36334;51.366;0.020;2022-10-17T05:38:16;16.00;99.90
31759;DHT22;36334;51.366;0.020;2022-10-17T05:41:05;16.00;99.90
31759;DHT22;36334;51.366;0.020;2022-10-17T05:43:52;16.00;99.90
31759;DHT22;36334;51.366;0.020;2022-10-17T05:46:51;16.00;99.90
31759;DHT22;36334;51.366;0.020;2022-10-17T05:49:37;16.00;99.90
31759;DHT22;36334;51.366;0.020;2022-10-17T05:52:38;15.90;99.90
31759;DHT22;36334;51.366;0.020;2022-10-17T05:55:31;16.00;99.90
31759;DHT22;36334;51.366;0.020;2022-10-17T05:58:17;15.90;99.90
31759;DHT22;36334;51.366;0.020;2022-10-17T06:01:11;15.90;99.90
31759;DHT22;36334;51.366;0.020;2022-10-17T06:03:57;15.90;99.90
31759;DHT22;36334;51.366;0.020;2022-10-17T06:06:43;15.90;99.90
31759;DHT22;36334;51.366;0.020;2022-10-17T06:09:31;15.90;99.90
31759;DHT22;36334;51.366;0.020;2022-10-17T06:12:17;15.90;99.90
31759;DHT22;36334;51.366;0.020;2022-10-17T06:15:06;15.90;99.90
31759;DHT22;36334;51.366;0.020;2022-10-17T06:17:52;15.90;99.90
31759;DHT22;36334;51.366;0.020;2022-10-17T06:20:38;15.80;99.90
31759;DHT22;36334;51.366;0.020;2022-10-17T06:23:33;15.80;99.90
31759;DHT22;36334;51.366;0.020;2022-10-17T06:26:34;15.80;99.90
31759;DHT22;36334;51.366;0.020;2022-10-17T06:29:20;15.80;99.90
31759;DHT22;36334;51.366;0.020;2022-10-17T06:32:09;15.80;99.90
31759;DHT22;36334;51.366;0.020;2022-10-17T06:35:00;15.80;99.90
31759;DHT22;36334;51.366;0.020;2022-10-17T06:37:47;15.80;99.90
31759;DHT22;36334;51.366;0.020;2022-10-17T06:40:33;15.80;99.90
31759;DHT22;36334;51.366;0.020;2022-10-17T06:43:20;15.80;99.90
31759;DHT22;36334;51.366;0.020;2022-10-17T06:46:18;15.80;99.90
31759;DHT22;36334;51.366;0.020;2022-10-17T06:49:14;15.80;99.90
31759;DHT22;36334;51.366;0.020;2022-10-17T06:52:16;15.70;99.90
31759;DHT22;36334;51.366;0.020;2022-10-17T06:55:22;15.70;99.90
31759;DHT22;36334;51.366;0.020;2022-10-17T06:58:20;15.70;99.90
31759;DHT22;36334;51.366;0.020;2022-10-17T07:01:18;15.70;99.90
31759;DHT22;36334;51.366;0.020;2022-10-17T07:04:06;15.70;99.90
31759;DHT22;36334;51.366;0.020;2022-10-17T07:06:53;15.70;99.90
31759;DHT22;36334;51.366;0.020;2022-10-17T07:09:41;15.70;99.90
31759;DHT22;36334;51.366;0.020;2022-10-17T07:12:29;15.60;99.90
31759;DHT22;36334;51.366;0.020;2022-10-17T07:15:15;15.60;99.90
31759;DHT22;36334;51.366;0.020;2022-10-17T07:18:01;15.60;99.90
31759;DHT22;36334;51.366;0.020;2022-10-17T07:20:54;15.60;99.90
31759;DHT22;36334;51.366;0.020;2022-10-17T07:23:40;15.60;99.90
31759;DHT22;36334;51.366;0.020;2022-10-17T07:26:27;15.60;99.90
31759;DHT22;36334;51.366;0.020;2022-10-17T07:29:14;15.60;99.90
31759;DHT22;36334;51.366;0.020;2022-10-17T07:32:06;15.60;99.90
31759;DHT22;36334;51.366;0.020;2022-10-17T07:34:53;15.60;99.90
31759;DHT22;36334;51.366;0.020;2022-10-17T07:37:39;15.60;99.90
31759;DHT22;36334;51.366;0.020;2022-10-17T07:40:26;15.60;99.90
31759;DHT22;36334;51.366;0.020;2022-10-17T07:43:12;15.60;99.90
31759;DHT22;36334;51.366;0.020;2022-10-17T07:46:00;15.60;99.90
31759;DHT22;36334;51.366;0.020;2022-10-17T07:48:47;15.60;99.90
31759;DHT22;36334;51.366;0.020;2022-10-17T07:51:37;15.60;99.90
31759;DHT22;36334;51.366;0.020;2022-10-17T07:54:23;15.60;99.90
31759;DHT22;36334;51.366;0.020;2022-10-17T07:57:10;15.70;99.90
31759;DHT22;36334;51.366;0.020;2022-10-17T07:59:56;15.60;99.90
31759;DHT22;36334;51.366;0.020;2022-10-17T08:02:42;15.70;99.90
31759;DHT22;36334;51.366;0.020;2022-10-17T08:05:29;15.70;99.90
31759;DHT22;36334;51.366;0.020;2022-10-17T08:08:15;15.70;99.90
31759;DHT22;36334;51.366;0.020;2022-10-17T08:11:06;15.70;99.90
31759;DHT22;36334;51.366;0.020;2022-10-17T08:13:52;15.70;99.90
31759;DHT22;36334;51.366;0.020;2022-10-17T08:16:39;15.80;99.90
31759;DHT22;36334;51.366;0.020;2022-10-17T08:19:25;15.80;99.90
31759;DHT22;36334;51.366;0.020;2022-10-17T08:22:11;15.80;99.90
31759;DHT22;36334;51.366;0.020;2022-10-17T08:24:58;15.80;99.90
31759;DHT22;36334;51.366;0.020;2022-10-17T08:27:44;15.80;99.90
31759;DHT22;36334;51.366;0.020;2022-10-17T08:30:30;15.80;99.90
31759;DHT22;36334;51.366;0.020;2022-10-17T08:33:16;15.80;99.90
31759;DHT22;36334;51.366;0.020;2022-10-17T08:36:03;15.90;99.90
31759;DHT22;36334;51.366;0.020;2022-10-17T08:38:50;15.90;99.90
31759;DHT22;36334;51.366;0.020;2022-10-17T08:47:35;16.00;99.90
31759;DHT22;36334;51.366;0.020;2022-10-17T08:50:36;16.00;99.90
31759;DHT22;36334;51.366;0.020;2022-10-17T08:56:54;16.00;99.90
31759;DHT22;36334;51.366;0.020;2022-10-17T08:59:48;16.10;99.90
31759;DHT22;36334;51.366;0.020;2022-10-17T09:05:36;16.20;99.90
31759;DHT22;36334;51.366;0.020;2022-10-17T09:20:23;16.50;99.90
31759;DHT22;36334;51.366;0.020;2022-10-17T09:23:20;16.50;99.90
31759;DHT22;36334;51.366;0.020;2022-10-17T09:26:09;16.50;99.90
31759;DHT22;36334;51.366;0.020;2022-10-17T09:28:58;16.50;99.90
31759;DHT22;36334;51.366;0.020;2022-10-17T09:31:56;16.60;99.90
31759;DHT22;36334;51.366;0.020;2022-10-17T09:34:44;16.60;99.90
31759;DHT22;36334;51.366;0.020;2022-10-17T09:37:31;16.60;99.90
31759;DHT22;36334;51.366;0.020;2022-10-17T09:40:25;16.70;99.90
31759;DHT22;36334;51.366;0.020;2022-10-17T09:43:13;16.70;99.90
31759;DHT22;36334;51.366;0.020;2022-10-17T09:49:04;16.70;99.90
31759;DHT22;36334;51.366;0.020;2022-10-17T09:51:52;16.70;99.90
31759;DHT22;36334;51.366;0.020;2022-10-17T10:03:25;16.70;99.90
31759;DHT22;36334;51.366;0.020;2022-10-17T10:06:17;16.70;99.90
31759;DHT22;36334;51.366;0.020;2022-10-17T10:09:04;16.70;99.90
31759;DHT22;36334;51.366;0.020;2022-10-17T10:11:54;16.60;99.90
31759;DHT22;36334;51.366;0.020;2022-10-17T10:14:41;16.70;99.90
31759;DHT22;36334;51.366;0.020;2022-10-17T10:17:37;16.70;99.90
31759;DHT22;36334;51.366;0.020;2022-10-17T10:20:42;16.80;99.90
31759;DHT22;36334;51.366;0.020;2022-10-17T10:23:32;16.90;99.90
31759;DHT22;36334;51.366;0.020;2022-10-17T10:26:33;16.90;99.90
31759;DHT22;36334;51.366;0.020;2022-10-17T10:32:30;17.00;99.90
31759;DHT22;36334;51.366;0.020;2022-10-17T10:35:20;17.10;99.90
31759;DHT22;36334;51.366;0.020;2022-10-17T10:38:11;17.10;99.90
31759;DHT22;36334;51.366;0.020;2022-10-17T10:41:08;17.10;99.90
31759;DHT22;36334;51.366;0.020;2022-10-17T10:43:54;17.20;99.90
31759;DHT22;36334;51.366;0.020;2022-10-17T10:46:41;17.20;99.90
31759;DHT22;36334;51.366;0.020;2022-10-17T10:49:29;17.20;99.90
31759;DHT22;36334;51.366;0.020;2022-10-17T10:53:24;17.20;99.90
31759;DHT22;36334;51.366;0.020;2022-10-17T10:55:52;17.30;99.90
31759;DHT22;36334;51.366;0.020;2022-10-17T11:07:32;17.50;99.90
31759;DHT22;36334;51.366;0.020;2022-10-17T11:13:20;17.70;99.90
31759;DHT22;36334;51.366;0.020;2022-10-17T11:16:33;17.80;99.90
31759;DHT22;36334;51.366;0.020;2022-10-17T11:19:36;17.90;99.90
31759;DHT22;36334;51.366;0.020;2022-10-17T11:22:30;18.00;99.90
31759;DHT22;36334;51.366;0.020;2022-10-17T11:25:28;18.00;99.90
31759;DHT22;36334;51.366;0.020;2022-10-17T11:28:20;18.10;99.90
31759;DHT22;36334;51.366;0.020;2022-10-17T11:31:12;18.10;99.90
31759;DHT22;36334;51.366;0.020;2022-10-17T11:34:19;18.10;99.90
31759;DHT22;36334;51.366;0.020;2022-10-17T11:37:22;18.10;99.90
31759;DHT22;36334;51.366;0.020;2022-10-17T11:40:29;18.20;99.90
31759;DHT22;36334;51.366;0.020;2022-10-17T11:46:22;18.20;99.90
31759;DHT22;36334;51.366;0.020;2022-10-17T11:49:14;18.20;99.90
31759;DHT22;36334;51.366;0.020;2022-10-17T11:52:40;18.10;99.90
31759;DHT22;36334;51.366;0.020;2022-10-17T11:55:42;18.10;99.90
31759;DHT22;36334;51.366;0.020;2022-10-17T11:58:43;18.00;99.90
31759;DHT22;36334;51.366;0.020;2022-10-17T12:01:35;18.10;99.90
31759;DHT22;36334;51.366;0.020;2022-10-17T12:08:04;18.20;99.90
31759;DHT22;36334;51.366;0.020;2022-10-17T12:11:10;18.20;99.90
31759;DHT22;36334;51.366;0.020;2022-10-17T12:14:00;18.20;99.90
31759;DHT22;36334;51.366;0.020;2022-10-17T12:16:51;18.20;99.90
31759;DHT22;36334;51.366;0.020;2022-10-17T12:19:37;18.20;99.90
31759;DHT22;36334;51.366;0.020;2022-10-17T12:22:24;18.20;99.90
31759;DHT22;36334;51.366;0.020;2022-10-17T12:25:18;18.20;99.90
31759;DHT22;36334;51.366;0.020;2022-10-17T12:28:10;18.30;99.90
31759;DHT22;36334;51.366;0.020;2022-10-17T12:31:05;18.30;99.90
31759;DHT22;36334;51.366;0.020;2022-10-17T12:33:55;18.40;99.90
31759;DHT22;36334;51.366;0.020;2022-10-17T12:36:42;18.30;99.90
31759;DHT22;36334;51.366;0.020;2022-10-17T12:42:29;18.40;99.90
31759;DHT22;36334;51.366;0.020;2022-10-17T12:51:26;18.50;99.90
31759;DHT22;36334;51.366;0.020;2022-10-17T12:54:23;18.50;99.90
31759;DHT22;36334;51.366;0.020;2022-10-17T12:57:18;18.50;99.90
31759;DHT22;36334;51.366;0.020;2022-10-17T13:03:15;18.50;99.90
31759;DHT22;36334;51.366;0.020;2022-10-17T13:06:05;18.50;99.90
31759;DHT22;36334;51.366;0.020;2022-10-17T13:09:07;18.40;99.90
31759;DHT22;36334;51.366;0.020;2022-10-17T13:11:55;18.40;99.90
31759;DHT22;36334;51.366;0.020;2022-10-17T13:14:42;18.40;99.90
31759;DHT22;36334;51.366;0.020;2022-10-17T13:17:30;18.40;99.90
31759;DHT22;36334;51.366;0.020;2022-10-17T13:20:21;18.40;99.90
31759;DHT22;36334;51.366;0.020;2022-10-17T13:23:24;18.50;99.90
31759;DHT22;36334;51.366;0.020;2022-10-17T13:26:19;18.50;99.90
31759;DHT22;36334;51.366;0.020;2022-10-17T13:29:10;18.60;99.90
31759;DHT22;36334;51.366;0.020;2022-10-17T13:32:02;18.70;99.90
31759;DHT22;36334;51.366;0.020;2022-10-17T13:35:05;18.80;99.90
31759;DHT22;36334;51.366;0.020;2022-10-17T13:37:52;19.00;99.90
31759;DHT22;36334;51.366;0.020;2022-10-17T13:40:41;19.10;99.90
31759;DHT22;36334;51.366;0.020;2022-10-17T13:43:35;19.10;99.90
31759;DHT22;36334;51.366;0.020;2022-10-17T13:46:33;19.10;99.90
31759;DHT22;36334;51.366;0.020;2022-10-17T13:52:21;19.00;99.90
31759;DHT22;36334;51.366;0.020;2022-10-17T13:55:14;18.80;99.90
31759;DHT22;36334;51.366;0.020;2022-10-17T13:58:16;18.80;99.90
31759;DHT22;36334;51.366;0.020;2022-10-17T14:01:02;18.70;99.90
31759;DHT22;36334;51.366;0.020;2022-10-17T14:03:49;18.60;99.90
31759;DHT22;36334;51.366;0.020;2022-10-17T14:06:53;18.50;99.90
31759;DHT22;36334;51.366;0.020;2022-10-17T14:09:39;18.40;99.90
31759;DHT22;36334;51.366;0.020;2022-10-17T14:12:25;18.50;99.90
31759;DHT22;36334;51.366;0.020;2022-10-17T14:15:13;18.50;99.90
31759;DHT22;36334;51.366;0.020;2022-10-17T14:18:05;18.70;99.90
31759;DHT22;36334;51.366;0.020;2022-10-17T14:20:53;19.00;99.90
31759;DHT22;36334;51.366;0.020;2022-10-17T14:24:28;19.30;99.90
31759;DHT22;36334;51.366;0.020;2022-10-17T14:27:33;19.60;99.90
31759;DHT22;36334;51.366;0.020;2022-10-17T14:33:32;19.70;99.90
31759;DHT22;36334;51.366;0.020;2022-10-17T14:36:35;19.60;99.90
31759;DHT22;36334;51.366;0.020;2022-10-17T14:39:24;19.50;99.90
31759;DHT22;36334;51.366;0.020;2022-10-17T14:42:20;19.40;99.90
31759;DHT22;36334;51.366;0.020;2022-10-17T14:45:12;19.50;99.90
31759;DHT22;36334;51.366;0.020;2022-10-17T14:48:03;19.50;99.90
31759;DHT22;36334;51.366;0.020;2022-10-17T14:51:13;19.60;99.90
31759;DHT22;36334;51.366;0.020;2022-10-17T14:56:52;19.80;99.90
31759;DHT22;36334;51.366;0.020;2022-10-17T14:59:39;19.80;99.90
31759;DHT22;36334;51.366;0.020;2022-10-17T15:02:39;19.80;99.90
31759;DHT22;36334;51.366;0.020;2022-10-17T15:05:25;19.80;99.90
31759;DHT22;36334;51.366;0.020;2022-10-17T15:08:16;19.70;99.90
31759;DHT22;36334;51.366;0.020;2022-10-17T15:11:02;19.90;99.90
31759;DHT22;36334;51.366;0.020;2022-10-17T15:13:51;20.10;99.90
31759;DHT22;36334;51.366;0.020;2022-10-17T15:16:37;20.20;99.90
31759;DHT22;36334;51.366;0.020;2022-10-17T15:19:24;20.30;99.90
31759;DHT22;36334;51.366;0.020;2022-10-17T15:22:10;20.30;99.90
31759;DHT22;36334;51.366;0.020;2022-10-17T15:24:56;20.20;99.90
31759;DHT22;36334;51.366;0.020;2022-10-17T15:27:42;20.10;99.90
31759;DHT22;36334;51.366;0.020;2022-10-17T15:30:31;19.80;99.90
31759;DHT22;36334;51.366;0.020;2022-10-17T15:33:17;19.60;99.90
31759;DHT22;36334;51.366;0.020;2022-10-17T15:36:03;19.40;99.90
31759;DHT22;36334;51.366;0.020;2022-10-17T15:38:51;19.20;99.90
31759;DHT22;36334;51.366;0.020;2022-10-17T15:41:38;18.90;99.90
31759;DHT22;36334;51.366;0.020;2022-10-17T15:44:24;18.70;99.90
31759;DHT22;36334;51.366;0.020;2022-10-17T15:47:27;18.60;99.90
31759;DHT22;36334;51.366;0.020;2022-10-17T15:50:16;18.50;99.90
31759;DHT22;36334;51.366;0.020;2022-10-17T15:53:04;18.40;99.90
31759;DHT22;36334;51.366;0.020;2022-10-17T15:55:50;18.30;99.90
31759;DHT22;36334;51.366;0.020;2022-10-17T15:58:38;18.30;99.90
31759;DHT22;36334;51.366;0.020;2022-10-17T16:01:29;18.20;99.90
31759;DHT22;36334;51.366;0.020;2022-10-17T16:04:16;18.20;99.90
31759;DHT22;36334;51.366;0.020;2022-10-17T16:07:03;18.20;99.90
31759;DHT22;36334;51.366;0.020;2022-10-17T16:09:49;18.10;99.90
31759;DHT22;36334;51.366;0.020;2022-10-17T16:12:35;18.10;99.90
31759;DHT22;36334;51.366;0.020;2022-10-17T16:15:26;18.00;99.90
31759;DHT22;36334;51.366;0.020;2022-10-17T16:18:13;17.90;99.90
31759;DHT22;36334;51.366;0.020;2022-10-17T16:20:59;17.80;99.90
31759;DHT22;36334;51.366;0.020;2022-10-17T16:23:45;17.70;99.90
31759;DHT22;36334;51.366;0.020;2022-10-17T16:26:32;17.60;99.90
31759;DHT22;36334;51.366;0.020;2022-10-17T16:29:17;17.50;99.90
31759;DHT22;36334;51.366;0.020;2022-10-17T16:32:03;17.40;99.90
31759;DHT22;36334;51.366;0.020;2022-10-17T16:34:49;17.30;99.90
31759;DHT22;36334;51.366;0.020;2022-10-17T16:37:36;17.20;99.90
31759;DHT22;36334;51.366;0.020;2022-10-17T16:40:22;17.00;99.90
31759;DHT22;36334;51.366;0.020;2022-10-17T16:43:17;16.90;99.90
31759;DHT22;36334;51.366;0.020;2022-10-17T16:46:03;16.80;99.90
31759;DHT22;36334;51.366;0.020;2022-10-17T16:48:49;16.70;99.90
31759;DHT22;36334;51.366;0.020;2022-10-17T16:51:35;16.60;99.90
31759;DHT22;36334;51.366;0.020;2022-10-17T16:54:21;16.50;99.90
31759;DHT22;36334;51.366;0.020;2022-10-17T16:57:07;16.40;99.90
31759;DHT22;36334;51.366;0.020;2022-10-17T16:59:54;16.30;99.90
31759;DHT22;36334;51.366;0.020;2022-10-17T17:02:41;16.20;99.90
31759;DHT22;36334;51.366;0.020;2022-10-17T17:05:27;16.10;99.90
31759;DHT22;36334;51.366;0.020;2022-10-17T17:08:13;16.00;99.90
31759;DHT22;36334;51.366;0.020;2022-10-17T17:10:59;15.90;99.90
31759;DHT22;36334;51.366;0.020;2022-10-17T17:13:46;15.90;99.90
31759;DHT22;36334;51.366;0.020;2022-10-17T17:16:33;15.80;99.90
31759;DHT22;36334;51.366;0.020;2022-10-17T17:19:19;15.70;99.90
31759;DHT22;36334;51.366;0.020;2022-10-17T17:22:06;15.60;99.90
31759;DHT22;36334;51.366;0.020;2022-10-17T17:24:52;15.60;99.90
31759;DHT22;36334;51.366;0.020;2022-10-17T17:27:38;15.50;99.90
31759;DHT22;36334;51.366;0.020;2022-10-17T17:30:24;15.40;99.90
31759;DHT22;36334;51.366;0.020;2022-10-17T17:33:10;15.30;99.90
31759;DHT22;36334;51.366;0.020;2022-10-17T17:35:58;15.30;99.90
31759;DHT22;36334;51.366;0.020;2022-10-17T17:38:45;15.20;99.90
31759;DHT22;36334;51.366;0.020;2022-10-17T17:41:32;15.10;99.90
31759;DHT22;36334;51.366;0.020;2022-10-17T17:44:18;15.10;99.90
31759;DHT22;36334;51.366;0.020;2022-10-17T17:47:05;15.10;99.90
31759;DHT22;36334;51.366;0.020;2022-10-17T17:49:51;15.00;99.90
31759;DHT22;36334;51.366;0.020;2022-10-17T17:52:37;15.00;99.90
31759;DHT22;36334;51.366;0.020;2022-10-17T17:55:26;14.90;99.90
31759;DHT22;36334;51.366;0.020;2022-10-17T17:58:13;14.90;99.90
31759;DHT22;36334;51.366;0.020;2022-10-17T18:00:59;14.90;99.90
31759;DHT22;36334;51.366;0.020;2022-10-17T18:03:47;14.80;99.90
31759;DHT22;36334;51.366;0.020;2022-10-17T18:06:36;14.80;99.90
31759;DHT22;36334;51.366;0.020;2022-10-17T18:09:22;14.80;99.90
31759;DHT22;36334;51.366;0.020;2022-10-17T18:12:10;14.80;99.90
31759;DHT22;36334;51.366;0.020;2022-10-17T18:14:58;14.80;99.90
31759;DHT22;36334;51.366;0.020;2022-10-17T18:17:44;14.80;99.90
31759;DHT22;36334;51.366;0.020;2022-10-17T18:20:31;14.80;99.90
31759;DHT22;36334;51.366;0.020;2022-10-17T18:23:17;14.80;99.90
31759;DHT22;36334;51.366;0.020;2022-10-17T18:26:04;14.80;99.90
31759;DHT22;36334;51.366;0.020;2022-10-17T18:28:50;14.70;99.90
31759;DHT22;36334;51.366;0.020;2022-10-17T18:31:36;14.70;99.90
31759;DHT22;36334;51.366;0.020;2022-10-17T18:34:22;14.70;99.90
31759;DHT22;36334;51.366;0.020;2022-10-17T18:37:08;14.70;99.90
31759;DHT22;36334;51.366;0.020;2022-10-17T18:39:54;14.60;99.90
31759;DHT22;36334;51.366;0.020;2022-10-17T18:42:42;14.60;99.90
31759;DHT22;36334;51.366;0.020;2022-10-17T18:45:28;14.60;99.90
31759;DHT22;36334;51.366;0.020;2022-10-17T18:48:14;14.60;99.90
31759;DHT22;36334;51.366;0.020;2022-10-17T18:51:03;14.60;99.90
31759;DHT22;36334;51.366;0.020;2022-10-17T18:53:58;14.50;99.90
31759;DHT22;36334;51.366;0.020;2022-10-17T18:56:47;14.50;99.90
31759;DHT22;36334;51.366;0.020;2022-10-17T18:59:34;14.50;99.90
31759;DHT22;36334;51.366;0.020;2022-10-17T19:02:20;14.40;99.90
31759;DHT22;36334;51.366;0.020;2022-10-17T19:05:06;14.40;99.90
31759;DHT22;36334;51.366;0.020;2022-10-17T19:07:52;14.30;99.90
31759;DHT22;36334;51.366;0.020;2022-10-17T19:10:40;14.30;99.90
31759;DHT22;36334;51.366;0.020;2022-10-17T19:13:27;14.20;99.90
31759;DHT22;36334;51.366;0.020;2022-10-17T19:16:16;14.10;99.90
31759;DHT22;36334;51.366;0.020;2022-10-17T19:19:09;14.10;99.90
31759;DHT22;36334;51.366;0.020;2022-10-17T19:21:56;14.10;99.90
31759;DHT22;36334;51.366;0.020;2022-10-17T19:24:42;14.10;99.90
31759;DHT22;36334;51.366;0.020;2022-10-17T19:27:28;14.00;99.90
31759;DHT22;36334;51.366;0.020;2022-10-17T19:30:15;13.90;99.90
31759;DHT22;36334;51.366;0.020;2022-10-17T19:33:01;13.90;99.90
31759;DHT22;36334;51.366;0.020;2022-10-17T19:35:57;13.80;99.90
31759;DHT22;36334;51.366;0.020;2022-10-17T19:38:44;13.80;99.90